Latest Coastal Weather Observations for Redland (Alexandra Hills)

IDQ60701

Issued at 5:22 pm EST Saturday 9 December 2023 (issued every 10 minutes, with the page automatically refreshed every 10 minutes)

About coastal observations | Map of coastal stations | Coastal observations for QLD | Marine services | Other Formats
Station Details ID: 140007 Name: REDLAND (ALEXANDRA HILLS) Lat: -27.54 Lon: 153.24 Height: 50.53 m
Data from the previous 72 hours. | See also: Recent months at Redland (Alexandra Hills)
Date/Time
EST
Wind Sea
Height
m
Swell Vis
km
Cloud Weather Temp
°C
Press
MSL
hPa
Rain since
9am
mm
Dir  Spd
kts
Gust
kts
Height
m
Period
s
Dir
09/05:00pm NNE 9 14 - - - - - - - 25.3 - 0.0
09/04:30pm NE 9 14 - - - - - - - 25.7 - 0.0
09/04:00pm NE 9 13 - - - - - - - 26.1 - 0.0
09/03:30pm NE 8 14 - - - - - - - 26.4 - 0.0
09/03:00pm NNE 7 12 - - - - - - - 26.7 - 0.0
09/02:30pm NNE 8 11 - - - - - - - 26.4 - 0.0
09/02:00pm NE 7 11 - - - - - - - 26.9 - 0.0
09/01:30pm NE 8 16 - - - - - - - 27.1 - 0.0
09/01:00pm NNE 8 13 - - - - - - - 26.8 - 0.0
09/12:30pm NNE 9 14 - - - - - - - 27.0 - 0.0
09/12:00pm NE 8 13 - - - - - - - 27.0 - 0.0
09/11:30am NE 9 13 - - - - - - - 26.6 - 0.0
09/11:00am NNE 9 15 - - - - - - - 26.8 - 0.0
09/10:30am NNE 8 12 - - - - - - - 25.9 - 0.0
09/10:00am NNE 9 15 - - - - - - - 25.4 - 0.0
09/09:30am NE 7 11 - - - - - - - 25.8 - 0.0
09/09:00am NE 5 11 - - - - - - - 25.9 - 0.0
09/08:30am NE 6 10 - - - - - - - 25.2 - 0.0
09/08:00am ENE 5 9 - - - - - - - 25.8 - 0.0
09/07:30am ENE 5 8 - - - - - - - 26.0 - 0.0
09/07:00am ENE 5 9 - - - - - - - 25.5 - 0.0
09/06:30am E 3 7 - - - - - - - 24.3 - 0.0
09/06:00am CALM 0 2 - - - - - - - 22.4 - 0.0
09/05:30am CALM 0 0 - - - - - - - 21.1 - 0.0
09/05:00am CALM 0 0 - - - - - - - 21.0 - 0.0
09/04:30am CALM 0 0 - - - - - - - 21.2 - 0.0
09/04:00am ENE 1 3 - - - - - - - 21.6 - 0.0
09/03:30am CALM 0 1 - - - - - - - 21.7 - 0.0
09/03:00am CALM 0 0 - - - - - - - 22.2 - 0.0
09/02:30am ENE 1 2 - - - - - - - 23.2 - 0.0
09/02:00am ENE 2 5 - - - - - - - 23.6 - 0.0
09/01:30am ENE 2 4 - - - - - - - 23.4 - 0.0
09/01:00am ENE 3 5 - - - - - - - 23.6 - 0.0
09/12:30am ENE 2 6 - - - - - - - 23.1 - 0.0
09/12:00am ENE 2 4 - - - - - - - 23.7 - 0.0
 
Date/Time
EST
Wind Sea
Height
m
Swell Vis
km
Cloud Weather Temp
°C
Press
MSL
hPa
Rain since
9am
mm
Dir  Spd
kts
Gust
kts
Height
m
Period
s
Dir
08/11:30pm ENE 3 5 - - - - - - - 24.0 - 0.0
08/11:00pm ENE 2 4 - - - - - - - 24.2 - 0.0
08/10:30pm ENE 3 6 - - - - - - - 24.3 - 0.0
08/10:00pm ENE 5 9 - - - - - - - 24.5 - 0.0
08/09:30pm ENE 5 7 - - - - - - - 24.5 - 0.0
08/09:00pm ENE 5 8 - - - - - - - 24.2 - 0.0
08/08:30pm ENE 4 7 - - - - - - - 24.3 - 0.0
08/08:00pm ENE 5 8 - - - - - - - 24.4 - 0.0
08/07:30pm NE 5 7 - - - - - - - 24.5 - 0.0
08/07:00pm ENE 4 6 - - - - - - - 24.9 - 0.0
08/06:30pm E 3 7 - - - - - - - 25.0 - 0.0
08/06:00pm E 4 9 - - - - - - - 25.6 - 0.0
08/05:30pm E 6 11 - - - - - - - 26.1 - 0.0
08/05:00pm ESE 5 11 - - - - - - - 26.9 - 0.0
08/04:30pm E 5 8 - - - - - - - 27.6 - 0.0
08/04:00pm ENE 5 9 - - - - - - - 27.6 - 0.0
08/03:30pm E 5 9 - - - - - - - 28.1 - 0.0
08/03:00pm E 4 9 - - - - - - - 28.1 - 0.0
08/02:30pm E 5 10 - - - - - - - 28.0 - 0.0
08/02:00pm NNE 8 13 - - - - - - - 27.3 - 0.0
08/01:30pm NE 8 13 - - - - - - - 27.4 - 0.0
08/01:00pm ENE 6 11 - - - - - - - 28.1 - 0.0
08/12:30pm NE 8 12 - - - - - - - 27.5 - 0.0
08/12:00pm NE 7 11 - - - - - - - 27.4 - 0.0
08/11:30am NE 7 13 - - - - - - - 27.8 - 0.0
08/11:00am ENE 5 10 - - - - - - - 28.0 - 0.0
08/10:30am ENE 4 7 - - - - - - - 28.1 - 0.0
08/10:00am ENE 4 9 - - - - - - - 28.0 - 0.0
08/09:30am ENE 4 7 - - - - - - - 27.3 - 0.0
08/09:00am ENE 4 7 - - - - - - - 26.8 - 0.0
08/08:30am E 3 5 - - - - - - - 26.9 - 0.0
08/08:00am ENE 3 5 - - - - - - - 26.6 - 0.0
08/07:30am ESE 3 5 - - - - - - - 25.2 - 0.0
08/07:00am E 3 6 - - - - - - - 25.1 - 0.0
08/06:30am SSW 1 1 - - - - - - - 23.9 - 0.0
08/06:00am CALM 0 0 - - - - - - - 22.2 - 0.0
08/05:30am SSW 1 2 - - - - - - - 20.9 - 0.0
08/05:00am SSW 2 2 - - - - - - - 20.4 - 0.0
08/04:30am CALM 0 0 - - - - - - - 20.1 - 0.0
08/04:00am CALM 0 0 - - - - - - - 20.5 - 0.0
08/03:30am SSW 2 2 - - - - - - - 21.0 - 0.0
08/03:00am SSW 2 3 - - - - - - - 20.9 - 0.0
08/02:30am SSW 3 4 - - - - - - - 20.9 - 0.0
08/02:00am SSW 2 3 - - - - - - - 20.9 - 0.0
08/01:30am N 2 3 - - - - - - - 21.0 - 0.0
08/01:00am NNE 2 4 - - - - - - - 21.0 - 0.0
08/12:30am CALM 0 0 - - - - - - - 21.4 - 0.0
08/12:00am CALM 0 0 - - - - - - - 21.8 - 0.0
 
Date/Time
EST
Wind Sea
Height
m
Swell Vis
km
Cloud Weather Temp
°C
Press
MSL
hPa
Rain since
9am
mm
Dir  Spd
kts
Gust
kts
Height
m
Period
s
Dir
07/11:30pm CALM 0 1 - - - - - - - 22.9 - 0.0
07/11:00pm NNE 1 3 - - - - - - - 23.3 - 0.0
07/10:30pm N 2 4 - - - - - - - 23.6 - 0.0
07/10:00pm N 2 3 - - - - - - - 23.9 - 0.0
07/09:30pm N 3 6 - - - - - - - 24.0 - 0.0
07/09:00pm NNE 4 6 - - - - - - - 24.3 - 0.0
07/08:30pm NNE 5 7 - - - - - - - 24.2 - 0.0
07/08:00pm NNE 4 7 - - - - - - - 24.1 - 0.0
07/07:30pm NNE 5 9 - - - - - - - 24.3 - 0.0
07/07:00pm NE 5 10 - - - - - - - 24.4 - 0.0
07/06:30pm NNE 6 10 - - - - - - - 24.7 - 0.0
07/06:00pm NNE 8 11 - - - - - - - 25.1 - 0.0
07/05:30pm NE 7 12 - - - - - - - 25.5 - 0.0
07/05:00pm NE 9 14 - - - - - - - 25.9 - 0.0
07/04:30pm NE 7 11 - - - - - - - 26.4 - 0.0
07/04:00pm NNE 7 11 - - - - - - - 26.9 - 0.0
07/03:30pm NNE 8 12 - - - - - - - 26.8 - 0.0
07/03:00pm NE 8 11 - - - - - - - 27.1 - 0.0
07/02:30pm NE 7 10 - - - - - - - 27.2 - 0.0
07/02:00pm NNE 7 11 - - - - - - - 27.3 - 0.0
07/01:30pm NNE 6 10 - - - - - - - 27.6 - 0.0
07/01:00pm NE 7 11 - - - - - - - 27.4 - 0.0
07/12:30pm NNE 6 11 - - - - - - - 27.3 - 0.0
07/12:00pm NE 7 10 - - - - - - - 26.8 - 0.0
07/11:30am NE 5 8 - - - - - - - 27.8 - 0.0
07/11:00am NE 5 9 - - - - - - - 27.3 - 0.0
07/10:30am NNE 6 10 - - - - - - - 27.5 - 0.0
07/10:00am ENE 4 7 - - - - - - - 27.1 - 0.0
07/09:30am ENE 3 6 - - - - - - - 27.3 - 0.0
07/09:00am NE 4 7 - - - - - - - 26.2 - 0.0
07/08:30am ENE 5 8 - - - - - - - 26.1 - 0.0
07/08:00am N 4 7 - - - - - - - 26.0 - 0.0
07/07:30am N 4 7 - - - - - - - 25.0 - 0.0
07/07:00am ENE 1 3 - - - - - - - 25.0 - 0.0
07/06:30am CALM 0 0 - - - - - - - 23.9 - 0.0
07/06:00am SSW 2 3 - - - - - - - 22.0 - 0.0
07/05:30am SSW 3 3 - - - - - - - 20.4 - 0.0
07/05:00am SSW 2 3 - - - - - - - 19.9 - 0.0
07/04:30am SW 3 4 - - - - - - - 19.5 - 0.0
07/04:00am CALM 0 0 - - - - - - - 19.2 - 0.0
07/03:30am CALM 0 0 - - - - - - - 19.6 - 0.0
07/03:00am CALM 0 0 - - - - - - - 20.1 - 0.0
07/02:30am CALM 0 0 - - - - - - - 20.0 - 0.0
07/02:00am CALM 0 0 - - - - - - - 20.1 - 0.0
07/01:30am CALM 0 0 - - - - - - - 20.4 - 0.0
07/01:00am CALM 0 0 - - - - - - - 20.6 - 0.0
07/12:30am CALM 0 0 - - - - - - - 21.2 - 0.0
07/12:00am NNE 2 3 - - - - - - - 22.3 - 0.0
 
Date/Time
EST
Wind Sea
Height
m
Swell Vis
km
Cloud Weather Temp
°C
Press
MSL
hPa
Rain since
9am
mm
Dir  Spd
kts
Gust
kts
Height
m
Period
s
Dir
06/11:30pm NNE 2 3 - - - - - - - 22.7 - 0.0
06/11:00pm NNE 2 3 - - - - - - - 22.7 - 0.0
06/10:30pm NNE 2 3 - - - - - - - 22.9 - 0.0
06/10:00pm NNE 4 7 - - - - - - - 23.2 - 0.0
06/09:30pm NNE 3 5 - - - - - - - 23.1 - 0.0
06/09:00pm NNE 3 5 - - - - - - - 23.5 - 0.0
06/08:30pm NNE 5 9 - - - - - - - 23.8 - 0.0
06/08:00pm NNE 5 7 - - - - - - - 24.0 - 0.0
06/07:30pm NNE 5 8 - - - - - - - 24.2 - 0.0
06/07:00pm NNE 6 10 - - - - - - - 24.6 - 0.0
06/06:30pm NNE 7 10 - - - - - - - 24.8 - 0.0
06/06:00pm NNE 8 11 - - - - - - - 25.3 - 0.0
06/05:30pm NNE 9 14 - - - - - - - 25.6 - 0.0

Other formats

Comma delimited format used in spreadsheet applications
http://www.bom.gov.au/fwo/IDQ60701/IDQ60701.94561.axf

JavaScript Object Notation format (JSON) in row-major order
http://www.bom.gov.au/fwo/IDQ60701/IDQ60701.94561.json

Data quality

Most of these data are generated automatically and are frequently updated. Quality checks on data are not normally performed. It is possible for incorrect values to appear. Refer to information at About Latest Weather Observations and please check the disclaimer before using these data.